Time;durP1;ratioP1;P1;durP2;ratioP2;P2;SDS_P1;SDS_P2;PMS_P1;PMS_P2;Temp;Humidity;BMP_temperature;BMP_pressure;BME280_temperature;BME280_humidity;BME280_pressure;Samples;Min_cycle;Max_cycle;Signal;HPM_P1;HPM_P2
2022/04/19 00:07:11;;;;;;;3.13;1.67;;;8.00;99.90;;;;;;20907526;28;20079;-76
2022/04/19 00:17:12;;;;;;;2.73;1.87;;;8.00;99.90;;;;;;20911094;28;20033;-75
2022/04/19 00:27:13;;;;;;;3.97;1.80;;;8.00;99.90;;;;;;20891000;28;20042;-75
2022/04/19 00:37:14;;;;;;;2.43;1.53;;;7.90;99.90;;;;;;20971876;28;20028;-76
2022/04/19 00:47:15;;;;;;;2.87;1.77;;;7.70;99.90;;;;;;20969357;28;20017;-76
2022/04/19 00:57:17;;;;;;;4.25;1.50;;;7.70;99.90;;;;;;20857243;28;20376;-76
2022/04/19 01:07:20;;;;;;;4.20;1.98;;;7.60;99.90;;;;;;20883286;28;20151;-74
2022/04/19 01:17:23;;;;;;;3.72;1.83;;;7.40;99.90;;;;;;20873911;28;20067;-75
2022/04/19 01:27:24;;;;;;;4.90;1.83;;;7.10;99.90;;;;;;20936885;28;20044;-75
2022/04/19 01:37:25;;;;;;;4.80;1.80;;;7.00;99.90;;;;;;20902792;28;20021;-75
2022/04/19 01:47:27;;;;;;;3.70;1.90;;;7.00;99.90;;;;;;20859969;28;20124;-75
2022/04/19 01:57:28;;;;;;;3.63;1.87;;;6.90;99.90;;;;;;20875773;28;20132;-74
2022/04/19 02:07:32;;;;;;;5.68;2.30;;;6.90;99.90;;;;;;20940990;28;20063;-74
2022/04/19 02:17:34;;;;;;;3.30;1.60;;;6.90;99.90;;;;;;20950716;28;20033;-75
2022/04/19 02:27:35;;;;;;;2.50;1.70;;;6.80;99.90;;;;;;20889575;28;20047;-75
2022/04/19 02:37:37;;;;;;;4.57;2.30;;;6.80;99.90;;;;;;20927274;28;20033;-75
2022/04/19 02:47:39;;;;;;;2.92;1.60;;;6.60;99.90;;;;;;20975008;28;20267;-75
2022/04/19 02:57:40;;;;;;;2.63;1.90;;;6.50;99.90;;;;;;20895744;28;20035;-75
2022/04/19 03:07:41;;;;;;;3.13;2.03;;;6.30;99.90;;;;;;20924642;28;20033;-75
2022/04/19 03:17:43;;;;;;;2.90;1.70;;;6.00;99.90;;;;;;20810594;28;20049;-74
2022/04/19 03:27:45;;;;;;;5.40;2.15;;;5.20;99.90;;;;;;20879534;28;20087;-73
2022/04/19 03:37:52;;;;;;;4.18;2.10;;;4.00;99.90;;;;;;20849321;28;20034;-75
2022/04/19 03:47:54;;;;;;;4.32;2.13;;;4.20;99.90;;;;;;20817710;28;20042;-73
2022/04/19 03:57:55;;;;;;;3.22;1.90;;;4.60;99.90;;;;;;20801960;28;20034;-73
2022/04/19 04:07:57;;;;;;;5.37;2.13;;;4.90;99.90;;;;;;20836501;28;20039;-73
2022/04/19 04:17:58;;;;;;;2.42;1.95;;;4.80;99.90;;;;;;20888777;28;20064;-73
2022/04/19 04:27:59;;;;;;;3.50;1.80;;;4.70;99.90;;;;;;20892817;28;20037;-73
2022/04/19 04:38:08;;;;;;;3.78;2.15;;;4.60;99.90;;;;;;20887149;28;20036;-73
2022/04/19 04:58:40;;;;;;;3.22;1.88;;;4.60;99.90;;;;;;20806618;28;20684;-74
2022/04/19 05:08:41;;;;;;;2.58;1.80;;;4.70;99.90;;;;;;20895904;28;20032;-74
2022/04/19 05:18:42;;;;;;;3.03;1.73;;;4.80;99.90;;;;;;20923339;28;20037;-75
2022/04/19 05:28:43;;;;;;;3.77;2.10;;;4.90;99.90;;;;;;20963318;28;20111;-74
2022/04/19 05:38:44;;;;;;;3.57;2.47;;;5.30;99.90;;;;;;20967433;28;20282;-74
2022/04/19 05:48:46;;;;;;;5.55;2.75;;;5.70;99.90;;;;;;20981594;28;20034;-75
2022/04/19 05:58:48;;;;;;;2.85;1.95;;;6.00;99.90;;;;;;21001198;28;20032;-75
2022/04/19 06:08:53;;;;;;;6.75;3.05;;;6.40;99.90;;;;;;20984279;28;20056;-75
2022/04/19 06:18:55;;;;;;;5.72;2.35;;;7.10;99.90;;;;;;20986113;28;20032;-75
2022/04/19 06:28:58;;;;;;;3.65;2.53;;;7.60;99.90;;;;;;20978941;28;20507;-76
2022/04/19 06:39:05;;;;;;;5.22;2.80;;;7.70;99.90;;;;;;21006687;28;20492;-76
2022/04/19 06:49:07;;;;;;;6.85;2.47;;;8.30;99.90;;;;;;20995784;28;20029;-76
2022/04/19 06:59:09;;;;;;;3.70;2.33;;;8.90;99.90;;;;;;21007385;28;20039;-76
2022/04/19 07:09:11;;;;;;;3.80;2.47;;;9.90;99.90;;;;;;20976449;28;20036;-76
2022/04/19 07:19:13;;;;;;;3.72;2.45;;;10.80;99.90;;;;;;20997851;28;20266;-76
2022/04/19 07:29:18;;;;;;;4.65;2.72;;;11.70;99.90;;;;;;21003840;28;20039;-76
2022/04/19 07:39:20;;;;;;;7.60;3.05;;;11.50;99.90;;;;;;21001633;28;20033;-75
2022/04/19 07:49:21;;;;;;;7.70;2.53;;;11.70;99.90;;;;;;21006324;28;20056;-75
2022/04/19 07:59:22;;;;;;;4.97;2.63;;;12.00;99.90;;;;;;20999191;28;20089;-77
2022/04/19 08:09:23;;;;;;;5.40;2.20;;;13.60;99.90;;;;;;20998831;28;20070;-76
2022/04/19 08:19:24;;;;;;;5.03;2.93;;;14.20;99.90;;;;;;21011551;28;20119;-76
2022/04/19 08:29:26;;;;;;;4.07;2.50;;;14.80;99.90;;;;;;20987459;28;20074;-76
2022/04/19 08:39:27;;;;;;;7.60;3.00;;;15.70;99.90;;;;;;20974321;28;20035;-75
2022/04/19 08:49:28;;;;;;;4.97;3.33;;;17.40;99.90;;;;;;20982397;28;20371;-75
2022/04/19 08:59:30;;;;;;;5.30;3.13;;;18.60;98.30;;;;;;21008611;28;20402;-76
2022/04/19 09:09:34;;;;;;;3.97;3.00;;;18.00;99.90;;;;;;20998308;28;20204;-76
2022/04/19 09:19:37;;;;;;;4.35;2.47;;;17.50;97.70;;;;;;20979574;28;20399;-75
2022/04/19 09:29:38;;;;;;;5.95;2.65;;;19.20;99.90;;;;;;20998416;28;20028;-76
2022/04/19 09:39:40;;;;;;;6.40;2.53;;;20.00;96.20;;;;;;20997070;28;20036;-76
2022/04/19 09:49:52;;;;;;;6.05;2.45;;;21.50;95.70;;;;;;20995077;28;20059;-76
2022/04/19 09:59:54;;;;;;;7.23;3.10;;;21.00;92.00;;;;;;20975822;28;20153;-76
2022/04/19 10:09:57;;;;;;;5.68;2.55;;;21.80;92.60;;;;;;20958951;28;20333;-77
2022/04/19 10:20:00;;;;;;;4.82;2.90;;;22.60;91.60;;;;;;20994525;28;20111;-77
2022/04/19 10:30:03;;;;;;;6.22;3.10;;;21.90;91.40;;;;;;20977772;28;20051;-78
2022/04/19 10:40:06;;;;;;;7.35;2.65;;;21.80;90.10;;;;;;20998760;28;20028;-78
2022/04/19 10:50:07;;;;;;;4.35;2.70;;;21.00;90.00;;;;;;21007737;28;20104;-78
2022/04/19 11:00:22;;;;;;;3.40;2.60;;;22.70;89.20;;;;;;21008638;28;20028;-77
2022/04/19 11:10:38;;;;;;;4.13;2.22;;;21.40;88.40;;;;;;21007805;28;20437;-77
2022/04/19 11:20:46;;;;;;;4.50;2.28;;;22.70;88.90;;;;;;21008116;28;20032;-76
2022/04/19 11:30:50;;;;;;;4.75;2.47;;;21.30;84.20;;;;;;21008090;22;20044;-75
2022/04/19 11:51:13;;;;;;;3.95;2.17;;;21.90;84.80;;;;;;20867384;28;20029;-76
2022/04/19 12:01:14;;;;;;;2.22;1.23;;;23.20;83.30;;;;;;20895232;28;20025;-76
2022/04/19 12:11:18;;;;;;;2.15;1.23;;;22.60;83.50;;;;;;20900777;28;20025;-76
2022/04/19 12:21:34;;;;;;;3.10;1.08;;;21.80;79.70;;;;;;20858058;28;20029;-76
2022/04/19 12:31:39;;;;;;;2.38;1.45;;;21.30;79.70;;;;;;20834485;28;20036;-76
2022/04/19 12:41:45;;;;;;;7.78;1.83;;;21.50;80.90;;;;;;20833622;28;20030;-76
2022/04/19 12:52:07;;;;;;;3.13;1.65;;;20.80;81.70;;;;;;20833146;28;20031;-76
2022/04/19 13:02:08;;;;;;;7.30;2.15;;;19.90;83.70;;;;;;20832084;28;20033;-75
2022/04/19 13:12:17;;;;;;;3.10;1.53;;;20.00;87.50;;;;;;20831012;28;20507;-75
2022/04/19 13:22:19;;;;;;;3.10;1.75;;;20.50;86.30;;;;;;20813596;28;20033;-76
2022/04/19 13:32:20;;;;;;;6.90;1.33;;;20.50;86.50;;;;;;20829258;28;20045;-77
2022/04/19 13:42:21;;;;;;;4.90;1.02;;;20.60;84.00;;;;;;20828830;28;20491;-76
2022/04/19 13:52:22;;;;;;;1.57;1.17;;;20.60;82.30;;;;;;20827861;28;20060;-76
2022/04/19 14:02:22;;;;;;;5.63;1.20;;;20.60;79.40;;;;;;20827284;28;20415;-76
2022/04/19 14:12:24;;;;;;;2.30;0.80;;;20.60;79.10;;;;;;20828270;28;20075;-76
2022/04/19 14:22:25;;;;;;;3.37;1.10;;;20.30;77.80;;;;;;20826427;28;20025;-76
2022/04/19 14:42:45;;;;;;;5.78;1.10;;;20.10;82.80;;;;;;20808097;28;20037;-76
2022/04/19 14:52:47;;;;;;;1.40;0.83;;;19.70;77.10;;;;;;20876471;28;20059;-76
2022/04/19 15:02:48;;;;;;;2.80;1.23;;;19.50;79.70;;;;;;20908928;28;20072;-76
2022/04/19 15:12:52;;;;;;;2.00;0.90;;;19.20;78.00;;;;;;20909351;28;20033;-77
2022/04/19 15:22:53;;;;;;;1.80;0.77;;;19.10;77.70;;;;;;20908174;28;20116;-78
2022/04/19 15:32:54;;;;;;;1.73;1.00;;;19.00;76.30;;;;;;20877298;28;20052;-78
2022/04/19 15:42:55;;;;;;;1.67;0.80;;;19.40;74.90;;;;;;20869743;28;20037;-78
2022/04/19 15:52:56;;;;;;;1.87;0.87;;;19.30;74.10;;;;;;20845684;28;20072;-78
2022/04/19 16:02:57;;;;;;;1.13;0.60;;;19.20;77.20;;;;;;20862318;28;20025;-77
2022/04/19 16:12:58;;;;;;;1.27;0.80;;;19.00;76.90;;;;;;20881719;28;20123;-78
2022/04/19 16:33:19;;;;;;;0.90;0.70;;;19.20;80.80;;;;;;20925730;28;20515;-78
2022/04/19 16:43:21;;;;;;;3.40;0.63;;;18.70;74.70;;;;;;20878058;28;20033;-78
2022/04/19 16:53:22;;;;;;;1.00;0.80;;;18.50;77.30;;;;;;20873085;28;20039;-77
2022/04/19 17:13:42;;;;;;;4.43;0.85;;;18.00;81.30;;;;;;20914157;28;20116;-76
2022/04/19 17:23:44;;;;;;;6.10;0.80;;;17.70;80.00;;;;;;20878948;28;20423;-75
2022/04/19 17:33:45;;;;;;;;;;;17.50;82.00;;;;;;20956237;22;20509;-76
2022/04/19 17:43:46;;;;;;;2.78;0.80;;;17.40;82.30;;;;;;20991019;28;19931;-76
2022/04/19 18:04:06;;;;;;;1.77;0.80;;;17.20;85.90;;;;;;20988057;28;20054;-79
2022/04/19 18:14:07;;;;;;;1.53;0.70;;;16.90;85.40;;;;;;21010023;28;20025;-77
2022/04/19 18:34:28;;;;;;;2.42;0.90;;;16.40;92.20;;;;;;20991697;28;20033;-76
2022/04/19 18:44:29;;;;;;;1.43;0.90;;;15.20;94.80;;;;;;20993793;28;20032;-76
2022/04/19 18:54:30;;;;;;;3.83;1.00;;;15.10;94.70;;;;;;20976684;28;20029;-76
2022/04/19 19:04:30;;;;;;;2.13;1.10;;;14.40;94.50;;;;;;20962643;28;20029;-77
2022/04/19 19:14:32;;;;;;;5.47;1.53;;;14.30;94.50;;;;;;20948974;28;20032;-76
2022/04/19 19:24:32;;;;;;;2.83;1.27;;;14.30;95.70;;;;;;21010698;28;20030;-77
2022/04/19 19:34:34;;;;;;;2.13;1.40;;;14.00;97.00;;;;;;20970245;28;20028;-74
2022/04/19 19:44:35;;;;;;;2.23;1.47;;;13.70;98.20;;;;;;20923300;28;20032;-76
2022/04/19 19:54:36;;;;;;;1.93;1.10;;;13.50;98.20;;;;;;20903301;28;20045;-75
2022/04/19 20:04:37;;;;;;;8.73;1.63;;;13.40;99.00;;;;;;20914794;28;20028;-76
2022/04/19 20:14:38;;;;;;;4.17;2.03;;;12.70;99.70;;;;;;20982933;28;20039;-76
2022/04/19 20:24:38;;;;;;;2.73;1.83;;;12.90;97.60;;;;;;20959702;28;20047;-77
2022/04/19 20:34:39;;;;;;;3.10;1.83;;;13.30;96.40;;;;;;20904211;28;20040;-75
2022/04/19 20:44:41;;;;;;;3.87;1.50;;;13.20;95.90;;;;;;20939094;28;20092;-78
2022/04/19 20:54:41;;;;;;;4.50;1.83;;;13.10;95.90;;;;;;20950507;28;20025;-75
2022/04/19 21:04:42;;;;;;;5.07;1.87;;;12.60;97.60;;;;;;20986111;28;20031;-75
2022/04/19 21:14:43;;;;;;;5.77;2.20;;;12.50;96.70;;;;;;20982547;28;20032;-76
2022/04/19 21:24:44;;;;;;;3.83;2.10;;;12.20;98.00;;;;;;20985222;28;20101;-76
2022/04/19 21:34:46;;;;;;;4.10;2.00;;;12.00;98.50;;;;;;20990236;28;20127;-77
2022/04/19 21:44:46;;;;;;;;;;;12.10;98.20;;;;;;20919477;28;20036;-76
2022/04/19 21:54:47;;;;;;;4.75;1.90;;;11.90;98.60;;;;;;20911501;28;20289;-76
2022/04/19 22:04:48;;;;;;;4.43;2.23;;;11.70;98.60;;;;;;20970178;28;20059;-75
2022/04/19 22:14:49;;;;;;;3.37;1.90;;;11.10;99.90;;;;;;20974810;28;20032;-77
2022/04/19 22:24:51;;;;;;;3.27;2.10;;;11.20;99.90;;;;;;20991725;28;20117;-77
2022/04/19 22:34:51;;;;;;;;;;;10.60;99.90;;;;;;20991087;28;20119;-76
2022/04/19 22:44:52;;;;;;;4.47;1.98;;;10.10;99.90;;;;;;20989904;28;19955;-75
2022/04/19 22:54:53;;;;;;;3.03;1.50;;;9.90;99.90;;;;;;20989819;28;20119;-76
2022/04/19 23:04:55;;;;;;;7.17;1.80;;;10.30;99.90;;;;;;20993656;28;20470;-76
2022/04/19 23:14:56;;;;;;;12.38;2.50;;;10.00;99.90;;;;;;20991216;28;20032;-76
2022/04/19 23:24:56;;;;;;;2.97;1.93;;;10.10;99.90;;;;;;20989395;28;20498;-75
2022/04/19 23:34:57;;;;;;;2.33;1.73;;;9.90;99.90;;;;;;20988931;28;20112;-77
2022/04/19 23:44:58;;;;;;;5.43;1.90;;;10.00;99.90;;;;;;20969996;28;20050;-75
2022/04/19 23:54:59;;;;;;;4.83;1.97;;;9.70;99.90;;;;;;20987417;28;20028;-75
